^^
Saratoga-Weather Station Historical Data
Daily Summary for August 2, 2021 Units:  Metric    English   Both
Daily Weekly Monthly Yearly Custom
  High: Low: Average:
Temperature: 2.9 °C -1.2 °C 0.9 °C
Dew Point: 1.1 °C -1.8 °C -0.4 °C
Humidity: 96% 81% 92%
Wind Speed: 4.8km/h 0km/h 1km/h
Wind Gust: 11.3km/h - -
Wind- - SE
Pressure: 1013.9 hPa 1011.9 hPa -
Precipitation: 0.0 mm    
Historical Graphs
 
 
Tabular Data for August 2, 2021
Time Temperature Dew Point Pressure Wind Wind Speed Wind Gust Humidity Rainfall Rate (Hourly) solar
00:01 2.1 °C 1.1 °C 1011.9 hPa Calm     93% 0.0 mm 0 W/m2
00:06 2.1 °C 1.1 °C 1011.9 hPa Calm     93% 0.0 mm 0 W/m2
00:11 1.9 °C 0.9 °C 1011.9 hPa Calm     93% 0.0 mm 0 W/m2
00:16 1.9 °C 0.9 °C 1011.9 hPa Calm     93% 0.0 mm 0 W/m2
00:21 1.8 °C 0.9 °C 1012.2 hPa ESE 3.2 km/h 3.2 km/h 94% 0.0 mm 0 W/m2
00:26 1.8 °C 0.9 °C 1012.2 hPa Calm     94% 0.0 mm 0 W/m2
00:31 1.9 °C 1 °C 1012.2 hPa Calm   1.6 km/h 94% 0.0 mm 0 W/m2
00:36 1.9 °C 1 °C 1012.2 hPa ESE 1.4 km/h 1.6 km/h 94% 0.0 mm 0 W/m2
00:41 1.9 °C 1 °C 1012.2 hPa Calm   1.6 km/h 94% 0.0 mm 0 W/m2
00:46 1.8 °C 0.9 °C 1012.2 hPa Calm     94% 0.0 mm 0 W/m2
00:51 1.8 °C 0.9 °C 1012.2 hPa Calm     94% 0.0 mm 0 W/m2
00:56 1.7 °C 0.7 °C 1012.2 hPa Calm     93% 0.0 mm 0 W/m2
01:01 1.6 °C 0.6 °C 1012.2 hPa Calm     93% 0.0 mm 0 W/m2
01:06 1.5 °C 0.6 °C 1012.2 hPa Calm     94% 0.0 mm 0 W/m2
01:11 1.4 °C 0.4 °C 1012.2 hPa Calm     93% 0.0 mm 0 W/m2
01:16 1.3 °C 0.4 °C 1012.2 hPa Calm     94% 0.0 mm 0 W/m2
01:21 1.3 °C 0.4 °C 1012.2 hPa Calm   1.6 km/h 94% 0.0 mm 0 W/m2
01:26 1.2 °C 0.3 °C 1012.2 hPa Calm     94% 0.0 mm 0 W/m2
01:31 1.2 °C 0.3 °C 1012.2 hPa Calm   1.6 km/h 94% 0.0 mm 0 W/m2
01:36 1.1 °C 0.2 °C 1012.2 hPa Calm     94% 0.0 mm 0 W/m2
01:41 1.1 °C 0.2 °C 1012.2 hPa Calm     94% 0.0 mm 0 W/m2
01:46 1 °C 0.1 °C 1012.2 hPa Calm     94% 0.0 mm 0 W/m2
01:51 0.9 °C 0 °C 1012.2 hPa Calm     94% 0.0 mm 0 W/m2
01:56 0.9 °C 0 °C 1012.2 hPa Calm     94% 0.0 mm 0 W/m2
02:01 0.9 °C 0.2 °C 1012.2 hPa Calm   1.6 km/h 95% 0.0 mm 0 W/m2
02:06 0.8 °C -0.1 °C 1012.2 hPa Calm     94% 0.0 mm 0 W/m2
02:11 0.8 °C 0.1 °C 1012.2 hPa Calm     95% 0.0 mm 0 W/m2
02:16 0.8 °C 0.1 °C 1012.2 hPa Calm     95% 0.0 mm 0 W/m2
02:21 0.7 °C 0 °C 1012.2 hPa Calm     95% 0.0 mm 0 W/m2
02:26 0.6 °C -0.3 °C 1012.2 hPa Calm     94% 0.0 mm 0 W/m2
02:31 0.5 °C -0.4 °C 1012.5 hPa Calm     94% 0.0 mm 0 W/m2
02:36 0.4 °C -0.5 °C 1012.5 hPa Calm     94% 0.0 mm 0 W/m2
02:41 0.3 °C -0.6 °C 1012.5 hPa Calm     94% 0.0 mm 0 W/m2
02:46 0.1 °C -0.8 °C 1012.5 hPa Calm     94% 0.0 mm 0 W/m2
02:51 0 °C -0.8 °C 1012.5 hPa Calm     94% 0.0 mm 0 W/m2
02:56 -0.1 °C -0.9 °C 1012.5 hPa Calm     94% 0.0 mm 0 W/m2
03:01 -0.2 °C -1 °C 1012.5 hPa Calm     94% 0.0 mm 0 W/m2
03:06 -0.2 °C -0.9 °C 1012.5 hPa Calm     95% 0.0 mm 0 W/m2
03:11 -0.2 °C -0.9 °C 1012.5 hPa Calm     95% 0.0 mm 0 W/m2
03:17 -0.2 °C -0.9 °C 1012.5 hPa ESE 1.4 km/h 3.2 km/h 95% 0.0 mm 0 W/m2
03:22 -0.3 °C -1 °C 1012.5 hPa Calm     95% 0.0 mm 0 W/m2
03:27 -0.3 °C -1 °C 1012.5 hPa Calm     95% 0.0 mm 0 W/m2
03:32 -0.4 °C -1.1 °C 1012.5 hPa Calm     95% 0.0 mm 0 W/m2
03:37 -0.5 °C -1.2 °C 1012.5 hPa Calm     95% 0.0 mm 0 W/m2
03:42 -0.6 °C -1.3 °C 1012.5 hPa Calm     95% 0.0 mm 0 W/m2
03:47 -0.7 °C -1.4 °C 1012.5 hPa Calm   1.6 km/h 95% 0.0 mm 0 W/m2
03:52 -0.7 °C -1.4 °C 1012.5 hPa Calm     95% 0.0 mm 0 W/m2
03:57 -0.8 °C -1.5 °C 1012.5 hPa Calm   1.6 km/h 95% 0.0 mm 0 W/m2
04:02 -0.8 °C -1.5 °C 1012.5 hPa ESE 1.4 km/h 1.6 km/h 95% 0.0 mm 0 W/m2
04:07 -0.8 °C -1.5 °C 1012.5 hPa Calm   1.6 km/h 95% 0.0 mm 0 W/m2
04:12 -0.8 °C -1.5 °C 1012.5 hPa Calm   3.2 km/h 95% 0.0 mm 0 W/m2
04:17 -0.8 °C -1.5 °C 1012.5 hPa Calm   1.6 km/h 95% 0.0 mm 0 W/m2
04:22 -0.7 °C -1.4 °C 1012.5 hPa Calm   3.2 km/h 95% 0.0 mm 0 W/m2
04:27 -0.6 °C -1.2 °C 1012.5 hPa SSE 1.4 km/h 3.2 km/h 96% 0.0 mm 0 W/m2
04:32 -0.6 °C -1.2 °C 1012.5 hPa Calm     96% 0.0 mm 0 W/m2
04:37 -0.6 °C -1.2 °C 1012.5 hPa SSE 1.4 km/h 3.2 km/h 96% 0.0 mm 0 W/m2
04:42 -0.6 °C -1.2 °C 1012.5 hPa Calm     96% 0.0 mm 0 W/m2
04:47 -0.6 °C -1.2 °C 1012.5 hPa SSE 1.4 km/h 3.2 km/h 96% 0.0 mm 0 W/m2
04:52 -0.6 °C -1.2 °C 1012.9 hPa Calm   1.6 km/h 96% 0.0 mm 0 W/m2
04:57 -0.6 °C -1.2 °C 1012.5 hPa NW 1.4 km/h 1.6 km/h 96% 0.0 mm 0 W/m2
05:02 -0.4 °C -1 °C 1012.9 hPa Calm   4.8 km/h 96% 0.0 mm 0 W/m2
05:07 -0.3 °C -0.9 °C 1012.9 hPa Calm   3.2 km/h 96% 0.0 mm 0 W/m2
05:12 -0.3 °C -0.9 °C 1012.5 hPa Calm   1.6 km/h 96% 0.0 mm 0 W/m2
05:17 -0.3 °C -0.9 °C 1012.9 hPa Calm   3.2 km/h 96% 0.0 mm 0 W/m2
05:22 -0.3 °C -0.9 °C 1012.9 hPa Calm     96% 0.0 mm 0 W/m2
05:27 -0.3 °C -0.9 °C 1012.9 hPa Calm   1.6 km/h 96% 0.0 mm 0 W/m2
05:32 -0.3 °C -0.9 °C 1012.9 hPa West 3.2 km/h 3.2 km/h 96% 0.0 mm 0 W/m2
05:37 -0.3 °C -1 °C 1012.9 hPa East 1.4 km/h 4.8 km/h 95% 0.0 mm 0 W/m2
05:42 -0.3 °C -1 °C 1012.9 hPa East 1.4 km/h 3.2 km/h 95% 0.0 mm 0 W/m2
05:47 -0.4 °C -1.1 °C 1012.9 hPa NE 1.4 km/h 4.8 km/h 95% 0.0 mm 0 W/m2
05:52 -0.4 °C -1.1 °C 1012.9 hPa Calm   3.2 km/h 95% 0.0 mm 0 W/m2
05:57 -0.5 °C -1.2 °C 1012.9 hPa ENE 1.4 km/h 4.8 km/h 95% 0.0 mm 0 W/m2
06:02 -0.6 °C -1.3 °C 1012.9 hPa WNW 1.4 km/h 1.6 km/h 95% 0.0 mm 0 W/m2
06:07 -0.6 °C -1.3 °C 1012.9 hPa Calm   1.6 km/h 95% 0.0 mm 0 W/m2
06:12 -0.6 °C -1.3 °C 1012.9 hPa NW 3.2 km/h 6.4 km/h 95% 0.0 mm 0 W/m2
06:17 -0.7 °C -1.4 °C 1012.9 hPa Calm   4.8 km/h 95% 0.0 mm 0 W/m2
06:22 -0.7 °C -1.4 °C 1012.9 hPa WNW 3.2 km/h 6.4 km/h 95% 0.0 mm 0 W/m2
06:27 -0.7 °C -1.4 °C 1012.9 hPa WNW 4.7 km/h 9.7 km/h 95% 0.0 mm 0 W/m2
06:32 -0.8 °C -1.5 °C 1012.9 hPa NW 3.2 km/h 4.8 km/h 95% 0.0 mm 0 W/m2
06:37 -0.8 °C -1.5 °C 1012.9 hPa WNW 4.7 km/h 6.4 km/h 95% 0.0 mm 0 W/m2
06:42 -0.9 °C -1.6 °C 1012.9 hPa Calm   4.8 km/h 95% 0.0 mm 0 W/m2
06:47 -0.9 °C -1.5 °C 1012.9 hPa NNE 1.4 km/h 8 km/h 96% 0.0 mm 0 W/m2
06:52 -0.9 °C -1.5 °C 1012.9 hPa NE 3.2 km/h 4.8 km/h 96% 0.0 mm 0 W/m2
06:57 -0.9 °C -1.5 °C 1012.9 hPa NNE 3.2 km/h 6.4 km/h 96% 0.0 mm 0 W/m2
07:02 -1 °C -1.7 °C 1012.9 hPa ENE 3.2 km/h 8 km/h 95% 0.0 mm 0 W/m2
07:07 -1.1 °C -1.7 °C 1013.2 hPa West 3.2 km/h 4.8 km/h 96% 0.0 mm 0 W/m2
07:12 -1.1 °C -1.7 °C 1012.9 hPa NNW 3.2 km/h 6.4 km/h 96% 0.0 mm 0 W/m2
07:17 -1.1 °C -1.7 °C 1013.2 hPa Calm   1.6 km/h 96% 0.0 mm 0 W/m2
07:22 -1.1 °C -1.7 °C 1013.2 hPa Calm   6.4 km/h 96% 0.0 mm 0 W/m2
07:27 -1 °C -1.6 °C 1013.2 hPa Calm   3.2 km/h 96% 0.0 mm 0 W/m2
07:32 -0.9 °C -1.5 °C 1013.2 hPa NNW 1.4 km/h 1.6 km/h 96% 0.0 mm 0 W/m2
07:37 -0.9 °C -1.5 °C 1013.2 hPa NE 1.4 km/h 3.2 km/h 96% 0.0 mm 0 W/m2
07:42 -0.9 °C -1.5 °C 1013.2 hPa NNE 3.2 km/h 3.2 km/h 96% 0.0 mm 0 W/m2
07:47 -0.9 °C -1.5 °C 1013.2 hPa North 1.4 km/h 4.8 km/h 96% 0.0 mm 0 W/m2
07:52 -0.9 °C -1.5 °C 1013.2 hPa NNE 1.4 km/h 3.2 km/h 96% 0.0 mm 0 W/m2
07:57 -0.9 °C -1.5 °C 1013.2 hPa NE 3.2 km/h 6.4 km/h 96% 0.0 mm 0 W/m2
08:02 -0.9 °C -1.5 °C 1013.2 hPa Calm   1.6 km/h 96% 0.0 mm 0 W/m2
08:07 -1 °C -1.6 °C 1013.2 hPa NE 3.2 km/h 4.8 km/h 96% 0.0 mm 0 W/m2
08:12 -1.1 °C -1.7 °C 1013.5 hPa NNE 1.4 km/h 3.2 km/h 96% 0.0 mm 0 W/m2
08:17 -1.1 °C -1.7 °C 1013.5 hPa ENE 3.2 km/h 4.8 km/h 96% 0.0 mm 0 W/m2
08:22 -1.1 °C -1.7 °C 1013.5 hPa ENE 3.2 km/h 3.2 km/h 96% 0.0 mm 0 W/m2
08:27 -1.1 °C -1.7 °C 1013.5 hPa ENE 3.2 km/h 9.7 km/h 96% 0.0 mm 0 W/m2
08:32 -1.1 °C -1.7 °C 1013.5 hPa Calm   1.6 km/h 96% 0.0 mm 0 W/m2
08:37 -1.1 °C -1.7 °C 1013.5 hPa NNW 3.2 km/h 9.7 km/h 96% 0.0 mm 0 W/m2
08:42 -1.1 °C -1.7 °C 1013.5 hPa WNW 3.2 km/h 4.8 km/h 96% 0.0 mm 0 W/m2
08:47 -1.1 °C -1.7 °C 1013.5 hPa Calm   3.2 km/h 96% 0.0 mm 0 W/m2
08:52 -1.2 °C -1.8 °C 1013.5 hPa Calm   4.8 km/h 96% 0.0 mm 5 W/m2
08:57 -1.2 °C -1.8 °C 1013.5 hPa ENE 4.7 km/h 6.4 km/h 96% 0.0 mm 5 W/m2
09:02 -1.1 °C -1.7 °C 1013.9 hPa ENE 3.2 km/h 11.3 km/h 96% 0.0 mm 5 W/m2
09:07 -1.1 °C -1.7 °C 1013.5 hPa Calm   3.2 km/h 96% 0.0 mm 9 W/m2
09:12 -1.1 °C -1.7 °C 1013.5 hPa NNE 1.4 km/h 9.7 km/h 96% 0.0 mm 12 W/m2
09:17 -1.1 °C -1.7 °C 1013.9 hPa Calm     96% 0.0 mm 14 W/m2
09:22 -1 °C -1.6 °C 1013.9 hPa Calm   3.2 km/h 96% 0.0 mm 18 W/m2
09:27 -1 °C -1.6 °C 1013.9 hPa Calm   6.4 km/h 96% 0.0 mm 18 W/m2
09:32 -0.9 °C -1.5 °C 1013.9 hPa Calm   3.2 km/h 96% 0.0 mm 19 W/m2
09:37 -0.9 °C -1.5 °C 1013.9 hPa NW 3.2 km/h 4.8 km/h 96% 0.0 mm 19 W/m2
09:42 -0.9 °C -1.5 °C 1013.9 hPa NE 1.4 km/h 3.2 km/h 96% 0.0 mm 25 W/m2
09:47 -0.9 °C -1.5 °C 1013.9 hPa Calm   1.6 km/h 96% 0.0 mm 30 W/m2
09:52 -0.9 °C -1.5 °C 1013.9 hPa NE 3.2 km/h 4.8 km/h 96% 0.0 mm 35 W/m2
09:57 -0.9 °C -1.5 °C 1013.9 hPa Calm   4.8 km/h 96% 0.0 mm 46 W/m2
10:02 -0.9 °C -1.5 °C 1013.9 hPa Calm   1.6 km/h 96% 0.0 mm 47 W/m2
10:07 -0.9 °C -1.5 °C 1013.9 hPa Calm   4.8 km/h 96% 0.0 mm 47 W/m2
10:12 -0.9 °C -1.5 °C 1013.9 hPa Calm   1.6 km/h 96% 0.0 mm 53 W/m2
10:17 -0.8 °C -1.4 °C 1013.9 hPa Calm   3.2 km/h 96% 0.0 mm 49 W/m2
10:23 -0.8 °C -1.4 °C 1013.9 hPa North 1.4 km/h 3.2 km/h 96% 0.0 mm 60 W/m2
10:28 -0.8 °C -1.4 °C 1013.9 hPa ENE 1.4 km/h 3.2 km/h 96% 0.0 mm 70 W/m2
10:33 -0.7 °C -1.3 °C 1013.9 hPa Calm     96% 0.0 mm 74 W/m2
10:38 -0.7 °C -1.3 °C 1013.9 hPa Calm   3.2 km/h 96% 0.0 mm 90 W/m2
10:43 -0.6 °C -1.2 °C 1013.9 hPa ENE 1.4 km/h 4.8 km/h 96% 0.0 mm 91 W/m2
10:48 -0.6 °C -1.3 °C 1013.9 hPa NE 1.4 km/h 3.2 km/h 95% 0.0 mm 88 W/m2
10:53 -0.5 °C -1.2 °C 1013.9 hPa Calm   4.8 km/h 95% 0.0 mm 98 W/m2
10:58 -0.4 °C -1.1 °C 1013.9 hPa Calm   3.2 km/h 95% 0.0 mm 102 W/m2
11:03 -0.3 °C -1 °C 1013.9 hPa ENE 1.4 km/h 3.2 km/h 95% 0.0 mm 104 W/m2
11:08 -0.2 °C -0.9 °C 1013.9 hPa ENE 1.4 km/h 3.2 km/h 95% 0.0 mm 90 W/m2
11:13 -0.2 °C -0.9 °C 1013.9 hPa East 3.2 km/h 3.2 km/h 95% 0.0 mm 127 W/m2
11:18 -0.1 °C -0.8 °C 1013.9 hPa Calm   1.6 km/h 95% 0.0 mm 135 W/m2
11:23 0 °C -0.7 °C 1013.9 hPa East 3.2 km/h 4.8 km/h 95% 0.0 mm 153 W/m2
11:28 0.1 °C -0.6 °C 1013.9 hPa East 1.4 km/h 1.6 km/h 95% 0.0 mm 192 W/m2
11:33 0.2 °C -0.5 °C 1013.9 hPa East 1.4 km/h 4.8 km/h 95% 0.0 mm 197 W/m2
11:38 0.3 °C -0.4 °C 1013.9 hPa East 1.4 km/h 4.8 km/h 95% 0.0 mm 190 W/m2
11:43 0.5 °C -0.4 °C 1013.9 hPa Calm   4.8 km/h 94% 0.0 mm 200 W/m2
11:53 0.7 °C -0.2 °C 1013.5 hPa SSE 1.4 km/h 1.6 km/h 94% 0.0 mm 218 W/m2
11:58 0.9 °C 0 °C 1013.5 hPa ESE 3.2 km/h 6.4 km/h 94% 0.0 mm 153 W/m2
12:03 1 °C 0 °C 1013.5 hPa Calm   3.2 km/h 93% 0.0 mm 113 W/m2
12:08 1.1 °C 0.1 °C 1013.5 hPa North 1.4 km/h 6.4 km/h 93% 0.0 mm 107 W/m2
12:13 1.1 °C 0.1 °C 1013.5 hPa North 1.4 km/h 1.6 km/h 93% 0.0 mm 100 W/m2
12:18 1.2 °C 0.2 °C 1013.2 hPa ENE 4.7 km/h 4.8 km/h 93% 0.0 mm 113 W/m2
12:24 1.2 °C 0 °C 1013.2 hPa Calm   1.6 km/h 92% 0.0 mm 127 W/m2
12:29 1.3 °C 0.1 °C 1013.2 hPa Calm   1.6 km/h 92% 0.0 mm 144 W/m2
12:34 1.3 °C 0.1 °C 1013.2 hPa NE 1.4 km/h 3.2 km/h 92% 0.0 mm 128 W/m2
12:39 1.4 °C 0.2 °C 1013.2 hPa Calm   1.6 km/h 92% 0.0 mm 116 W/m2
12:44 1.4 °C 0.1 °C 1013.2 hPa Calm   3.2 km/h 91% 0.0 mm 114 W/m2
12:49 1.4 °C 0.1 °C 1013.2 hPa ENE 1.4 km/h 4.8 km/h 91% 0.0 mm 120 W/m2
12:54 1.4 °C 0.1 °C 1012.9 hPa ENE 4.7 km/h 4.8 km/h 91% 0.0 mm 135 W/m2
12:59 1.4 °C 0.1 °C 1012.9 hPa ENE 1.4 km/h 3.2 km/h 91% 0.0 mm 132 W/m2
13:04 1.4 °C -0.1 °C 1012.9 hPa ENE 1.4 km/h 1.6 km/h 90% 0.0 mm 137 W/m2
13:09 1.4 °C -0.1 °C 1012.9 hPa Calm   1.6 km/h 90% 0.0 mm 127 W/m2
13:14 1.4 °C 0.1 °C 1012.9 hPa Calm     91% 0.0 mm 127 W/m2
13:19 1.5 °C 0 °C 1012.9 hPa Calm     90% 0.0 mm 120 W/m2
13:24 1.6 °C 0.1 °C 1012.9 hPa Calm     90% 0.0 mm 113 W/m2
13:29 1.7 °C 0.2 °C 1012.9 hPa ESE 3.2 km/h 3.2 km/h 90% 0.0 mm 107 W/m2
13:34 1.8 °C 0.3 °C 1012.9 hPa Calm   3.2 km/h 90% 0.0 mm 107 W/m2
13:39 1.8 °C 0.2 °C 1012.9 hPa East 4.8 km/h 4.8 km/h 89% 0.0 mm 107 W/m2
13:44 1.9 °C 0.3 °C 1012.5 hPa Calm   1.6 km/h 89% 0.0 mm 105 W/m2
13:49 1.9 °C 0.3 °C 1012.5 hPa ESE 1.4 km/h 3.2 km/h 89% 0.0 mm 104 W/m2
13:54 2.1 °C 0.5 °C 1012.5 hPa Calm   3.2 km/h 89% 0.0 mm 93 W/m2
13:59 2.1 °C 0.5 °C 1012.5 hPa Calm   1.6 km/h 89% 0.0 mm 88 W/m2
14:04 2.2 °C 0.6 °C 1012.5 hPa East 1.4 km/h 1.6 km/h 89% 0.0 mm 83 W/m2
14:09 2.2 °C 0.4 °C 1012.5 hPa Calm   1.6 km/h 88% 0.0 mm 81 W/m2
14:14 2.3 °C 0.5 °C 1012.5 hPa Calm   1.6 km/h 88% 0.0 mm 79 W/m2
14:19 2.3 °C 0.4 °C 1012.5 hPa ENE 3.2 km/h 9.7 km/h 87% 0.0 mm 70 W/m2
14:24 2.3 °C 0.4 °C 1012.5 hPa Calm   4.8 km/h 87% 0.0 mm 63 W/m2
14:29 2.3 °C 0.2 °C 1012.5 hPa East 1.4 km/h 8 km/h 86% 0.0 mm 63 W/m2
14:34 2.4 °C 0.3 °C 1012.5 hPa Calm   1.6 km/h 86% 0.0 mm 62 W/m2
14:39 2.4 °C 0.1 °C 1012.5 hPa ENE 1.4 km/h 3.2 km/h 85% 0.0 mm 60 W/m2
14:44 2.5 °C 0.2 °C 1012.5 hPa ENE 1.4 km/h 1.6 km/h 85% 0.0 mm 56 W/m2
14:49 2.5 °C 0.2 °C 1012.2 hPa Calm     85% 0.0 mm 54 W/m2
14:54 2.6 °C 0.3 °C 1012.5 hPa ESE 1.4 km/h 3.2 km/h 85% 0.0 mm 54 W/m2
14:59 2.6 °C 0.2 °C 1012.5 hPa East 4.7 km/h 4.8 km/h 84% 0.0 mm 49 W/m2
15:04 2.7 °C 0.1 °C 1012.2 hPa Calm   4.8 km/h 83% 0.0 mm 49 W/m2
15:09 2.7 °C 0.1 °C 1012.2 hPa ENE 1.4 km/h 4.8 km/h 83% 0.0 mm 54 W/m2
15:14 2.7 °C -0.1 °C 1012.2 hPa Calm   1.6 km/h 82% 0.0 mm 51 W/m2
15:19 2.8 °C -0.1 °C 1012.2 hPa NE 3.2 km/h 4.8 km/h 81% 0.0 mm 54 W/m2
15:24 2.8 °C -0.1 °C 1012.2 hPa ESE 3.2 km/h 4.8 km/h 81% 0.0 mm 53 W/m2
15:29 2.8 °C -0.1 °C 1012.2 hPa Calm   1.6 km/h 81% 0.0 mm 46 W/m2
15:34 2.9 °C 0 °C 1012.2 hPa Calm   4.8 km/h 81% 0.0 mm 37 W/m2
15:39 2.9 °C 0.1 °C 1012.2 hPa Calm   1.6 km/h 82% 0.0 mm 40 W/m2
15:44 2.9 °C 0.1 °C 1012.2 hPa NE 1.4 km/h 3.2 km/h 82% 0.0 mm 37 W/m2
15:49 2.9 °C 0.1 °C 1012.2 hPa Calm   1.6 km/h 82% 0.0 mm 30 W/m2
15:54 2.9 °C 0.1 °C 1012.5 hPa Calm   3.2 km/h 82% 0.0 mm 25 W/m2
16:00 2.8 °C 0 °C 1012.5 hPa North 3.2 km/h 4.8 km/h 82% 0.0 mm 19 W/m2
16:05 2.8 °C 0.2 °C 1012.5 hPa Calm   4.8 km/h 83% 0.0 mm 16 W/m2
16:10 2.8 °C 0.2 °C 1012.5 hPa Calm   3.2 km/h 83% 0.0 mm 12 W/m2
16:15 2.8 °C 0.2 °C 1012.5 hPa WNW 1.4 km/h 4.8 km/h 83% 0.0 mm 11 W/m2
16:20 2.7 °C 0.3 °C 1012.5 hPa Calm   3.2 km/h 84% 0.0 mm 9 W/m2
16:25 2.7 °C 0.3 °C 1012.9 hPa Calm   1.6 km/h 84% 0.0 mm 7 W/m2
16:30 2.7 °C 0.3 °C 1012.9 hPa North 1.4 km/h 1.6 km/h 84% 0.0 mm 5 W/m2
16:35 2.6 °C 0.2 °C 1012.5 hPa Calm   1.6 km/h 84% 0.0 mm 5 W/m2
16:40 2.6 °C 0.2 °C 1012.5 hPa Calm     84% 0.0 mm 0 W/m2
16:45 2.5 °C 0.2 °C 1012.9 hPa Calm   3.2 km/h 85% 0.0 mm 0 W/m2
16:50 2.5 °C 0.2 °C 1012.9 hPa NE 1.4 km/h 1.6 km/h 85% 0.0 mm 0 W/m2
16:55 2.4 °C 0.1 °C 1012.9 hPa Calm   3.2 km/h 85% 0.0 mm 0 W/m2
17:00 2.4 °C 0.1 °C 1012.9 hPa Calm   1.6 km/h 85% 0.0 mm 0 W/m2
17:05 2.3 °C 0 °C 1012.9 hPa Calm   3.2 km/h 85% 0.0 mm 0 W/m2
17:10 2.3 °C 0 °C 1012.9 hPa North 1.4 km/h 3.2 km/h 85% 0.0 mm 0 W/m2
17:15 2.3 °C 0.2 °C 1012.9 hPa Calm   1.6 km/h 86% 0.0 mm 0 W/m2
17:20 2.2 °C 0.1 °C 1012.9 hPa Calm   3.2 km/h 86% 0.0 mm 0 W/m2
17:25 2.2 °C 0.1 °C 1012.9 hPa NNW 3.2 km/h 3.2 km/h 86% 0.0 mm 0 W/m2
17:30 2.2 °C 0.1 °C 1012.9 hPa NE 1.4 km/h 3.2 km/h 86% 0.0 mm 0 W/m2
17:35 2.2 °C 0.1 °C 1012.9 hPa ENE 1.4 km/h 3.2 km/h 86% 0.0 mm 0 W/m2
17:40 2.2 °C 0.1 °C 1012.9 hPa North 3.2 km/h 3.2 km/h 86% 0.0 mm 0 W/m2
17:45 2.1 °C 0 °C 1012.9 hPa NE 1.4 km/h 3.2 km/h 86% 0.0 mm 0 W/m2
17:50 2.1 °C 0 °C 1012.9 hPa ENE 3.2 km/h 4.8 km/h 86% 0.0 mm 0 W/m2
17:55 2.1 °C 0.2 °C 1012.9 hPa NE 1.4 km/h 3.2 km/h 87% 0.0 mm 0 W/m2
18:00 2.1 °C 0.2 °C 1012.9 hPa Calm   3.2 km/h 87% 0.0 mm 0 W/m2
18:05 2.1 °C 0.2 °C 1012.9 hPa NNE 1.4 km/h 1.6 km/h 87% 0.0 mm 0 W/m2
18:10 2 °C 0.2 °C 1012.9 hPa NE 1.4 km/h 3.2 km/h 88% 0.0 mm 0 W/m2
18:16 2 °C 0.2 °C 1012.9 hPa Calm   3.2 km/h 88% 0.0 mm 0 W/m2
18:21 2 °C 0.2 °C 1012.9 hPa NE 1.4 km/h 3.2 km/h 88% 0.0 mm 0 W/m2
18:26 2 °C 0.2 °C 1012.9 hPa Calm   4.8 km/h 88% 0.0 mm 0 W/m2
18:31 1.9 °C 0.1 °C 1012.9 hPa ENE 3.2 km/h 3.2 km/h 88% 0.0 mm 0 W/m2
18:36 1.9 °C 0.1 °C 1012.9 hPa Calm   3.2 km/h 88% 0.0 mm 0 W/m2
18:41 1.9 °C 0.1 °C 1012.9 hPa Calm   4.8 km/h 88% 0.0 mm 0 W/m2
18:46 1.9 °C 0.1 °C 1012.9 hPa North 3.2 km/h 4.8 km/h 88% 0.0 mm 0 W/m2
18:51 1.9 °C 0.1 °C 1012.5 hPa NNE 3.2 km/h 3.2 km/h 88% 0.0 mm 0 W/m2
18:56 1.9 °C 0.1 °C 1012.5 hPa Calm   4.8 km/h 88% 0.0 mm 0 W/m2
19:01 1.8 °C 0 °C 1012.5 hPa NNE 1.4 km/h 3.2 km/h 88% 0.0 mm 0 W/m2
19:06 1.8 °C 0 °C 1012.5 hPa Calm   4.8 km/h 88% 0.0 mm 0 W/m2
19:11 1.8 °C 0 °C 1012.5 hPa Calm   1.6 km/h 88% 0.0 mm 0 W/m2
19:16 1.8 °C 0.2 °C 1012.5 hPa WNW 1.4 km/h 3.2 km/h 89% 0.0 mm 0 W/m2
19:21 1.8 °C 0.2 °C 1012.5 hPa WNW 3.2 km/h 3.2 km/h 89% 0.0 mm 0 W/m2
19:26 1.8 °C 0.2 °C 1012.5 hPa Calm   1.6 km/h 89% 0.0 mm 0 W/m2
19:31 1.8 °C 0.2 °C 1012.5 hPa Calm   3.2 km/h 89% 0.0 mm 0 W/m2
19:36 1.8 °C 0.2 °C 1012.2 hPa NW 3.2 km/h 3.2 km/h 89% 0.0 mm 0 W/m2
19:41 1.7 °C 0.1 °C 1012.5 hPa WNW 3.2 km/h 3.2 km/h 89% 0.0 mm 0 W/m2
19:46 1.7 °C 0.1 °C 1012.2 hPa Calm   8 km/h 89% 0.0 mm 0 W/m2
19:51 1.7 °C 0.1 °C 1012.5 hPa West 4.7 km/h 4.8 km/h 89% 0.0 mm 0 W/m2
19:56 1.8 °C 0.3 °C 1012.5 hPa NNW 4.7 km/h 8 km/h 90% 0.0 mm 0 W/m2
20:01 1.8 °C 0.2 °C 1012.5 hPa NW 3.2 km/h 3.2 km/h 89% 0.0 mm 0 W/m2
20:06 1.8 °C 0.2 °C 1012.5 hPa North 3.2 km/h 4.8 km/h 89% 0.0 mm 0 W/m2
20:11 1.8 °C 0.2 °C 1012.5 hPa WNW 4.7 km/h 4.8 km/h 89% 0.0 mm 0 W/m2
20:16 1.8 °C 0.2 °C 1012.5 hPa West 3.2 km/h 8 km/h 89% 0.0 mm 0 W/m2
20:21 1.8 °C 0.2 °C 1012.5 hPa Calm   3.2 km/h 89% 0.0 mm 0 W/m2
20:26 1.8 °C 0.2 °C 1012.5 hPa Calm   3.2 km/h 89% 0.0 mm 0 W/m2
20:31 1.8 °C 0.2 °C 1012.5 hPa Calm   1.6 km/h 89% 0.0 mm 0 W/m2
20:36 1.8 °C 0.2 °C 1012.5 hPa Calm   1.6 km/h 89% 0.0 mm 0 W/m2
20:41 1.7 °C 0.1 °C 1012.5 hPa Calm   3.2 km/h 89% 0.0 mm 0 W/m2
20:46 1.7 °C 0.1 °C 1012.5 hPa Calm   3.2 km/h 89% 0.0 mm 0 W/m2
20:51 1.7 °C 0.1 °C 1012.5 hPa Calm   1.6 km/h 89% 0.0 mm 0 W/m2
20:56 1.6 °C 0 °C 1012.5 hPa Calm     89% 0.0 mm 0 W/m2
21:01 1.6 °C 0.1 °C 1012.5 hPa Calm     90% 0.0 mm 0 W/m2
21:06 1.6 °C 0.1 °C 1012.5 hPa Calm     90% 0.0 mm 0 W/m2
21:11 1.6 °C 0.1 °C 1012.5 hPa Calm     90% 0.0 mm 0 W/m2
21:16 1.6 °C 0.1 °C 1012.5 hPa NE 3.2 km/h 3.2 km/h 90% 0.0 mm 0 W/m2
21:22 1.6 °C 0.1 °C 1012.5 hPa Calm   1.6 km/h 90% 0.0 mm 0 W/m2
21:27 1.6 °C 0.1 °C 1012.5 hPa Calm   1.6 km/h 90% 0.0 mm 0 W/m2
21:32 1.6 °C 0.1 °C 1012.9 hPa Calm   1.6 km/h 90% 0.0 mm 0 W/m2
21:37 1.6 °C 0.1 °C 1012.9 hPa Calm   3.2 km/h 90% 0.0 mm 0 W/m2
21:42 1.6 °C 0.1 °C 1012.9 hPa Calm   3.2 km/h 90% 0.0 mm 0 W/m2
21:47 1.6 °C 0.1 °C 1012.9 hPa Calm   1.6 km/h 90% 0.0 mm 0 W/m2
21:52 1.6 °C 0.1 °C 1012.9 hPa NE 1.4 km/h 3.2 km/h 90% 0.0 mm 0 W/m2
21:57 1.6 °C 0.1 °C 1012.9 hPa NE 1.4 km/h 3.2 km/h 90% 0.0 mm 0 W/m2
22:02 1.6 °C 0.3 °C 1012.9 hPa Calm   3.2 km/h 91% 0.0 mm 0 W/m2
22:07 1.6 °C 0.3 °C 1012.9 hPa East 1.4 km/h 3.2 km/h 91% 0.0 mm 0 W/m2
22:12 1.6 °C 0.3 °C 1012.9 hPa Calm     91% 0.0 mm 0 W/m2
22:17 1.6 °C 0.3 °C 1012.9 hPa Calm   1.6 km/h 91% 0.0 mm 0 W/m2
22:22 1.6 °C 0.3 °C 1012.9 hPa Calm     91% 0.0 mm 0 W/m2
22:27 1.5 °C 0.2 °C 1012.9 hPa Calm     91% 0.0 mm 0 W/m2
22:32 1.5 °C 0.2 °C 1012.9 hPa Calm   1.6 km/h 91% 0.0 mm 0 W/m2
22:37 1.5 °C 0.2 °C 1012.9 hPa Calm     91% 0.0 mm 0 W/m2
22:42 1.5 °C 0.3 °C 1012.9 hPa ENE 3.2 km/h 4.8 km/h 92% 0.0 mm 0 W/m2
22:47 1.5 °C 0.3 °C 1012.9 hPa Calm   3.2 km/h 92% 0.0 mm 0 W/m2
22:52 1.5 °C 0.3 °C 1012.9 hPa NW 3.2 km/h 3.2 km/h 92% 0.0 mm 0 W/m2
22:57 1.5 °C 0.3 °C 1012.9 hPa Calm   1.6 km/h 92% 0.0 mm 0 W/m2
23:02 1.4 °C 0.2 °C 1012.9 hPa Calm   1.6 km/h 92% 0.0 mm 0 W/m2
23:07 1.5 °C 0.3 °C 1012.9 hPa NW 3.2 km/h 3.2 km/h 92% 0.0 mm 0 W/m2
23:12 1.4 °C 0.2 °C 1012.9 hPa NW 3.2 km/h 3.2 km/h 92% 0.0 mm 0 W/m2
23:17 1.4 °C 0.1 °C 1012.9 hPa Calm   6.4 km/h 91% 0.0 mm 0 W/m2
23:22 1.4 °C 0.1 °C 1012.5 hPa NW 1.4 km/h 3.2 km/h 91% 0.0 mm 0 W/m2
23:27 1.4 °C 0.1 °C 1012.5 hPa WNW 1.4 km/h 3.2 km/h 91% 0.0 mm 0 W/m2
23:32 1.4 °C 0.1 °C 1012.5 hPa Calm   1.6 km/h 91% 0.0 mm 0 W/m2
23:37 1.4 °C 0.1 °C 1012.5 hPa Calm   3.2 km/h 91% 0.0 mm 0 W/m2
23:42 1.5 °C 0.2 °C 1012.5 hPa NNW 3.2 km/h 3.2 km/h 91% 0.0 mm 0 W/m2
23:47 1.6 °C 0.1 °C 1012.5 hPa ENE 1.4 km/h 4.8 km/h 90% 0.0 mm 0 W/m2
23:52 1.6 °C 0.1 °C 1012.2 hPa NNE 1.4 km/h 3.2 km/h 90% 0.0 mm 0 W/m2
23:57 1.6 °C 0 °C 1012.2 hPa Calm   3.2 km/h 89% 0.0 mm 0 W/m2
Juneau County Weather
Compliments of Weather Underground - 4 mb